sensor_id;sensor_type;location;lat;lon;timestamp;P1;durP1;ratioP1;P2;durP2;ratioP2
10661;SDS011;5379;51.034;7.006;2023-04-15T04:31:28;1.27;;;1.27;;
10661;SDS011;5379;51.034;7.006;2023-04-15T04:33:55;1.83;;;1.73;;
10661;SDS011;5379;51.034;7.006;2023-04-15T04:36:21;1.93;;;1.83;;
10661;SDS011;5379;51.034;7.006;2023-04-15T04:38:48;1.40;;;1.40;;
10661;SDS011;5379;51.034;7.006;2023-04-15T04:41:15;1.37;;;1.37;;
10661;SDS011;5379;51.034;7.006;2023-04-15T04:43:43;1.50;;;1.40;;
10661;SDS011;5379;51.034;7.006;2023-04-15T04:46:10;1.20;;;1.20;;
10661;SDS011;5379;51.034;7.006;2023-04-15T04:48:38;6.00;;;2.07;;
10661;SDS011;5379;51.034;7.006;2023-04-15T04:51:05;2.00;;;1.90;;
10661;SDS011;5379;51.034;7.006;2023-04-15T04:53:33;1.80;;;1.70;;
10661;SDS011;5379;51.034;7.006;2023-04-15T04:56:01;9.20;;;5.70;;
10661;SDS011;5379;51.034;7.006;2023-04-15T04:58:28;1.77;;;1.67;;
10661;SDS011;5379;51.034;7.006;2023-04-15T05:00:55;2.37;;;2.10;;
10661;SDS011;5379;51.034;7.006;2023-04-15T05:03:22;1.80;;;1.70;;
10661;SDS011;5379;51.034;7.006;2023-04-15T05:05:51;6.47;;;1.90;;
10661;SDS011;5379;51.034;7.006;2023-04-15T05:08:18;1.37;;;1.30;;
10661;SDS011;5379;51.034;7.006;2023-04-15T05:10:45;1.77;;;1.60;;
10661;SDS011;5379;51.034;7.006;2023-04-15T05:13:12;1.77;;;1.73;;
10661;SDS011;5379;51.034;7.006;2023-04-15T05:15:39;1.77;;;1.67;;
10661;SDS011;5379;51.034;7.006;2023-04-15T05:18:07;1.60;;;1.50;;
10661;SDS011;5379;51.034;7.006;2023-04-15T05:20:34;3.13;;;1.80;;
10661;SDS011;5379;51.034;7.006;2023-04-15T05:23:02;2.00;;;1.90;;
10661;SDS011;5379;51.034;7.006;2023-04-15T05:25:29;1.50;;;1.40;;
10661;SDS011;5379;51.034;7.006;2023-04-15T05:27:56;8.33;;;1.97;;
10661;SDS011;5379;51.034;7.006;2023-04-15T05:30:23;1.63;;;1.53;;
10661;SDS011;5379;51.034;7.006;2023-04-15T05:32:50;1.90;;;1.80;;
10661;SDS011;5379;51.034;7.006;2023-04-15T05:35:17;2.00;;;1.90;;
10661;SDS011;5379;51.034;7.006;2023-04-15T05:37:44;2.47;;;2.37;;
10661;SDS011;5379;51.034;7.006;2023-04-15T05:40:13;2.23;;;1.97;;
10661;SDS011;5379;51.034;7.006;2023-04-15T05:42:40;4.40;;;1.83;;
10661;SDS011;5379;51.034;7.006;2023-04-15T05:45:07;2.77;;;2.20;;
10661;SDS011;5379;51.034;7.006;2023-04-15T05:47:34;1.90;;;1.70;;
10661;SDS011;5379;51.034;7.006;2023-04-15T05:50:02;2.60;;;2.20;;
10661;SDS011;5379;51.034;7.006;2023-04-15T05:52:30;1.93;;;1.80;;
10661;SDS011;5379;51.034;7.006;2023-04-15T05:54:57;2.37;;;1.93;;
10661;SDS011;5379;51.034;7.006;2023-04-15T05:57:25;4.47;;;2.30;;
10661;SDS011;5379;51.034;7.006;2023-04-15T05:59:52;2.77;;;2.23;;
10661;SDS011;5379;51.034;7.006;2023-04-15T06:02:21;1.73;;;1.63;;
10661;SDS011;5379;51.034;7.006;2023-04-15T06:04:48;2.17;;;1.97;;
10661;SDS011;5379;51.034;7.006;2023-04-15T06:07:15;2.50;;;2.30;;
10661;SDS011;5379;51.034;7.006;2023-04-15T06:09:42;2.40;;;2.27;;
10661;SDS011;5379;51.034;7.006;2023-04-15T06:12:09;7.67;;;3.27;;
10661;SDS011;5379;51.034;7.006;2023-04-15T06:14:38;2.67;;;2.53;;
10661;SDS011;5379;51.034;7.006;2023-04-15T06:17:05;2.47;;;2.27;;
10661;SDS011;5379;51.034;7.006;2023-04-15T06:19:32;4.83;;;2.60;;
10661;SDS011;5379;51.034;7.006;2023-04-15T06:22:00;2.00;;;1.90;;
10661;SDS011;5379;51.034;7.006;2023-04-15T06:24:27;3.57;;;2.60;;
10661;SDS011;5379;51.034;7.006;2023-04-15T06:26:55;2.33;;;2.13;;
10661;SDS011;5379;51.034;7.006;2023-04-15T06:29:22;2.13;;;2.03;;
10661;SDS011;5379;51.034;7.006;2023-04-15T06:31:51;2.67;;;2.47;;
10661;SDS011;5379;51.034;7.006;2023-04-15T06:34:18;5.57;;;2.77;;
10661;SDS011;5379;51.034;7.006;2023-04-15T06:36:45;4.57;;;2.47;;
10661;SDS011;5379;51.034;7.006;2023-04-15T06:39:12;1.93;;;1.83;;
10661;SDS011;5379;51.034;7.006;2023-04-15T06:41:39;2.40;;;2.30;;
10661;SDS011;5379;51.034;7.006;2023-04-15T06:44:06;3.13;;;2.20;;
10661;SDS011;5379;51.034;7.006;2023-04-15T06:46:33;2.63;;;2.43;;
10661;SDS011;5379;51.034;7.006;2023-04-15T06:49:02;2.03;;;1.93;;
10661;SDS011;5379;51.034;7.006;2023-04-15T06:51:29;2.43;;;2.33;;
10661;SDS011;5379;51.034;7.006;2023-04-15T06:53:56;3.70;;;2.50;;
10661;SDS011;5379;51.034;7.006;2023-04-15T06:56:23;2.50;;;2.40;;
10661;SDS011;5379;51.034;7.006;2023-04-15T06:58:51;2.53;;;2.43;;
10661;SDS011;5379;51.034;7.006;2023-04-15T07:01:18;3.07;;;2.87;;
10661;SDS011;5379;51.034;7.006;2023-04-15T07:03:45;3.23;;;2.90;;
10661;SDS011;5379;51.034;7.006;2023-04-15T07:06:13;4.13;;;2.97;;
10661;SDS011;5379;51.034;7.006;2023-04-15T07:08:41;2.30;;;2.20;;
10661;SDS011;5379;51.034;7.006;2023-04-15T07:11:08;2.40;;;2.30;;
10661;SDS011;5379;51.034;7.006;2023-04-15T07:13:35;2.67;;;2.47;;
10661;SDS011;5379;51.034;7.006;2023-04-15T07:16:01;2.37;;;2.17;;
10661;SDS011;5379;51.034;7.006;2023-04-15T07:18:29;3.57;;;2.67;;
10661;SDS011;5379;51.034;7.006;2023-04-15T07:20:56;2.37;;;2.17;;
10661;SDS011;5379;51.034;7.006;2023-04-15T07:23:24;2.07;;;1.97;;
10661;SDS011;5379;51.034;7.006;2023-04-15T07:25:51;2.10;;;2.00;;
10661;SDS011;5379;51.034;7.006;2023-04-15T07:28:18;1.97;;;1.87;;
10661;SDS011;5379;51.034;7.006;2023-04-15T07:30:45;2.03;;;1.90;;
10661;SDS011;5379;51.034;7.006;2023-04-15T07:33:12;1.40;;;1.40;;
10661;SDS011;5379;51.034;7.006;2023-04-15T07:35:39;1.20;;;1.20;;
10661;SDS011;5379;51.034;7.006;2023-04-15T07:38:06;1.40;;;1.40;;
10661;SDS011;5379;51.034;7.006;2023-04-15T07:40:35;1.90;;;1.80;;
10661;SDS011;5379;51.034;7.006;2023-04-15T07:43:02;1.50;;;1.50;;
10661;SDS011;5379;51.034;7.006;2023-04-15T07:45:29;1.53;;;1.47;;
10661;SDS011;5379;51.034;7.006;2023-04-15T07:47:56;1.37;;;1.37;;
10661;SDS011;5379;51.034;7.006;2023-04-15T07:50:23;2.00;;;1.10;;
10661;SDS011;5379;51.034;7.006;2023-04-15T07:52:51;2.73;;;1.27;;
10661;SDS011;5379;51.034;7.006;2023-04-15T07:55:18;1.60;;;1.50;;
10661;SDS011;5379;51.034;7.006;2023-04-15T07:57:48;1.10;;;1.10;;
10661;SDS011;5379;51.034;7.006;2023-04-15T08:00:16;1.37;;;1.27;;
10661;SDS011;5379;51.034;7.006;2023-04-15T08:02:43;1.10;;;1.10;;
10661;SDS011;5379;51.034;7.006;2023-04-15T08:05:10;3.77;;;1.53;;
10661;SDS011;5379;51.034;7.006;2023-04-15T08:07:39;1.13;;;1.13;;
10661;SDS011;5379;51.034;7.006;2023-04-15T08:10:06;2.30;;;1.30;;
10661;SDS011;5379;51.034;7.006;2023-04-15T08:12:34;1.10;;;1.10;;
10661;SDS011;5379;51.034;7.006;2023-04-15T08:15:02;1.03;;;1.03;;
10661;SDS011;5379;51.034;7.006;2023-04-15T08:17:30;1.50;;;1.40;;
10661;SDS011;5379;51.034;7.006;2023-04-15T08:19:58;1.00;;;1.00;;
10661;SDS011;5379;51.034;7.006;2023-04-15T08:22:25;1.10;;;1.10;;
10661;SDS011;5379;51.034;7.006;2023-04-15T08:24:52;1.00;;;1.00;;
10661;SDS011;5379;51.034;7.006;2023-04-15T08:27:19;1.00;;;1.00;;
10661;SDS011;5379;51.034;7.006;2023-04-15T08:29:46;0.80;;;0.80;;
10661;SDS011;5379;51.034;7.006;2023-04-15T08:32:15;1.10;;;1.10;;
10661;SDS011;5379;51.034;7.006;2023-04-15T08:34:43;1.10;;;1.10;;
10661;SDS011;5379;51.034;7.006;2023-04-15T08:37:10;4.07;;;0.90;;
10661;SDS011;5379;51.034;7.006;2023-04-15T08:39:37;1.00;;;1.00;;
10661;SDS011;5379;51.034;7.006;2023-04-15T08:42:05;0.80;;;0.80;;
10661;SDS011;5379;51.034;7.006;2023-04-15T08:44:42;1.10;;;1.10;;
10661;SDS011;5379;51.034;7.006;2023-04-15T08:47:09;0.67;;;0.67;;
10661;SDS011;5379;51.034;7.006;2023-04-15T08:49:40;1.27;;;1.27;;
10661;SDS011;5379;51.034;7.006;2023-04-15T08:52:08;1.00;;;1.00;;
10661;SDS011;5379;51.034;7.006;2023-04-15T08:54:36;1.07;;;0.97;;
10661;SDS011;5379;51.034;7.006;2023-04-15T08:57:03;2.00;;;1.27;;
10661;SDS011;5379;51.034;7.006;2023-04-15T08:59:32;1.30;;;1.20;;
10661;SDS011;5379;51.034;7.006;2023-04-15T09:01:59;1.30;;;1.30;;
10661;SDS011;5379;51.034;7.006;2023-04-15T09:04:27;1.20;;;1.20;;
10661;SDS011;5379;51.034;7.006;2023-04-15T09:06:56;1.17;;;1.17;;
10661;SDS011;5379;51.034;7.006;2023-04-15T09:09:23;1.00;;;1.00;;
10661;SDS011;5379;51.034;7.006;2023-04-15T09:11:50;1.27;;;1.27;;
10661;SDS011;5379;51.034;7.006;2023-04-15T09:14:17;1.37;;;1.30;;
10661;SDS011;5379;51.034;7.006;2023-04-15T09:16:57;1.07;;;1.07;;
10661;SDS011;5379;51.034;7.006;2023-04-15T09:19:25;4.00;;;1.30;;
10661;SDS011;5379;51.034;7.006;2023-04-15T09:21:53;1.20;;;1.20;;
10661;SDS011;5379;51.034;7.006;2023-04-15T09:24:23;1.20;;;1.20;;
10661;SDS011;5379;51.034;7.006;2023-04-15T09:26:51;1.33;;;1.33;;
10661;SDS011;5379;51.034;7.006;2023-04-15T09:29:19;1.00;;;1.00;;
10661;SDS011;5379;51.034;7.006;2023-04-15T09:31:50;1.27;;;1.20;;
10661;SDS011;5379;51.034;7.006;2023-04-15T09:34:17;0.80;;;0.80;;
10661;SDS011;5379;51.034;7.006;2023-04-15T09:36:52;1.00;;;1.00;;
10661;SDS011;5379;51.034;7.006;2023-04-15T09:39:22;1.00;;;1.00;;
10661;SDS011;5379;51.034;7.006;2023-04-15T09:42:05;1.37;;;1.10;;
10661;SDS011;5379;51.034;7.006;2023-04-15T09:44:32;0.80;;;0.80;;
10661;SDS011;5379;51.034;7.006;2023-04-15T09:46:59;0.90;;;0.90;;
10661;SDS011;5379;51.034;7.006;2023-04-15T09:49:26;1.10;;;1.10;;
10661;SDS011;5379;51.034;7.006;2023-04-15T09:51:56;1.50;;;1.50;;
10661;SDS011;5379;51.034;7.006;2023-04-15T09:54:26;1.33;;;1.27;;
10661;SDS011;5379;51.034;7.006;2023-04-15T09:57:03;1.80;;;1.70;;
10661;SDS011;5379;51.034;7.006;2023-04-15T09:59:31;1.43;;;1.43;;
10661;SDS011;5379;51.034;7.006;2023-04-15T10:01:58;1.43;;;1.43;;
10661;SDS011;5379;51.034;7.006;2023-04-15T10:04:29;1.63;;;1.40;;
10661;SDS011;5379;51.034;7.006;2023-04-15T10:06:57;2.00;;;1.90;;
10661;SDS011;5379;51.034;7.006;2023-04-15T10:09:27;1.80;;;1.70;;
10661;SDS011;5379;51.034;7.006;2023-04-15T10:11:55;1.60;;;1.60;;
10661;SDS011;5379;51.034;7.006;2023-04-15T10:14:22;1.60;;;1.60;;
10661;SDS011;5379;51.034;7.006;2023-04-15T10:16:50;1.30;;;1.30;;
10661;SDS011;5379;51.034;7.006;2023-04-15T10:19:21;1.43;;;1.43;;
10661;SDS011;5379;51.034;7.006;2023-04-15T10:21:52;1.47;;;1.43;;
10661;SDS011;5379;51.034;7.006;2023-04-15T10:24:20;1.23;;;1.23;;
10661;SDS011;5379;51.034;7.006;2023-04-15T10:26:50;3.27;;;1.40;;
10661;SDS011;5379;51.034;7.006;2023-04-15T10:29:18;1.40;;;1.40;;
10661;SDS011;5379;51.034;7.006;2023-04-15T10:31:45;5.83;;;1.63;;
10661;SDS011;5379;51.034;7.006;2023-04-15T10:34:14;1.50;;;1.50;;
10661;SDS011;5379;51.034;7.006;2023-04-15T10:36:41;1.60;;;1.50;;
10661;SDS011;5379;51.034;7.006;2023-04-15T10:44:41;1.20;;;1.20;;
10661;SDS011;5379;51.034;7.006;2023-04-15T10:47:09;1.60;;;1.50;;
10661;SDS011;5379;51.034;7.006;2023-04-15T10:49:44;1.50;;;1.50;;
10661;SDS011;5379;51.034;7.006;2023-04-15T10:52:12;1.10;;;1.10;;
10661;SDS011;5379;51.034;7.006;2023-04-15T10:54:40;1.03;;;1.03;;
10661;SDS011;5379;51.034;7.006;2023-04-15T10:57:08;1.37;;;1.37;;
10661;SDS011;5379;51.034;7.006;2023-04-15T11:00:00;1.10;;;1.10;;
10661;SDS011;5379;51.034;7.006;2023-04-15T11:02:39;1.27;;;1.27;;
10661;SDS011;5379;51.034;7.006;2023-04-15T11:05:07;0.90;;;0.90;;
10661;SDS011;5379;51.034;7.006;2023-04-15T11:07:38;1.00;;;1.00;;
10661;SDS011;5379;51.034;7.006;2023-04-15T11:13:20;0.90;;;0.90;;
10661;SDS011;5379;51.034;7.006;2023-04-15T11:15:49;0.97;;;0.97;;
10661;SDS011;5379;51.034;7.006;2023-04-15T11:18:21;1.30;;;1.30;;
10661;SDS011;5379;51.034;7.006;2023-04-15T11:20:49;1.30;;;1.30;;
10661;SDS011;5379;51.034;7.006;2023-04-15T11:23:19;1.10;;;1.10;;
10661;SDS011;5379;51.034;7.006;2023-04-15T11:25:53;1.20;;;1.20;;
10661;SDS011;5379;51.034;7.006;2023-04-15T11:28:23;1.00;;;1.00;;
10661;SDS011;5379;51.034;7.006;2023-04-15T11:30:51;1.23;;;1.23;;
10661;SDS011;5379;51.034;7.006;2023-04-15T11:33:19;1.43;;;1.33;;
10661;SDS011;5379;51.034;7.006;2023-04-15T11:35:47;1.40;;;1.40;;
10661;SDS011;5379;51.034;7.006;2023-04-15T11:38:15;1.20;;;1.20;;
10661;SDS011;5379;51.034;7.006;2023-04-15T11:40:42;1.00;;;1.00;;
10661;SDS011;5379;51.034;7.006;2023-04-15T11:43:10;1.57;;;1.47;;
10661;SDS011;5379;51.034;7.006;2023-04-15T11:45:48;1.00;;;1.00;;
10661;SDS011;5379;51.034;7.006;2023-04-15T11:48:16;1.37;;;1.37;;
10661;SDS011;5379;51.034;7.006;2023-04-15T11:50:44;1.10;;;1.10;;
10661;SDS011;5379;51.034;7.006;2023-04-15T11:53:12;1.67;;;1.57;;
10661;SDS011;5379;51.034;7.006;2023-04-15T11:55:43;1.30;;;1.30;;
10661;SDS011;5379;51.034;7.006;2023-04-15T11:58:11;2.00;;;1.90;;
10661;SDS011;5379;51.034;7.006;2023-04-15T12:00:40;1.37;;;1.37;;
10661;SDS011;5379;51.034;7.006;2023-04-15T12:03:16;2.53;;;2.07;;
10661;SDS011;5379;51.034;7.006;2023-04-15T12:08:48;1.40;;;1.40;;
10661;SDS011;5379;51.034;7.006;2023-04-15T12:11:26;1.53;;;1.53;;
10661;SDS011;5379;51.034;7.006;2023-04-15T12:14:02;1.87;;;1.77;;
10661;SDS011;5379;51.034;7.006;2023-04-15T12:16:32;1.40;;;1.40;;
10661;SDS011;5379;51.034;7.006;2023-04-15T12:19:05;2.07;;;1.97;;
10661;SDS011;5379;51.034;7.006;2023-04-15T12:21:36;1.60;;;1.57;;
10661;SDS011;5379;51.034;7.006;2023-04-15T12:24:04;1.60;;;1.60;;
10661;SDS011;5379;51.034;7.006;2023-04-15T12:26:33;1.40;;;1.40;;
10661;SDS011;5379;51.034;7.006;2023-04-15T12:29:03;1.60;;;1.57;;
10661;SDS011;5379;51.034;7.006;2023-04-15T12:31:32;1.60;;;1.50;;
10661;SDS011;5379;51.034;7.006;2023-04-15T12:34:02;1.50;;;1.50;;
10661;SDS011;5379;51.034;7.006;2023-04-15T12:36:32;1.80;;;1.80;;
10661;SDS011;5379;51.034;7.006;2023-04-15T12:39:01;1.60;;;1.60;;
10661;SDS011;5379;51.034;7.006;2023-04-15T12:41:29;2.17;;;2.07;;
10661;SDS011;5379;51.034;7.006;2023-04-15T12:43:56;2.10;;;2.00;;
10661;SDS011;5379;51.034;7.006;2023-04-15T12:46:23;1.70;;;1.70;;
10661;SDS011;5379;51.034;7.006;2023-04-15T12:48:51;1.57;;;1.57;;
10661;SDS011;5379;51.034;7.006;2023-04-15T12:51:20;6.90;;;2.40;;
10661;SDS011;5379;51.034;7.006;2023-04-15T12:53:47;2.13;;;2.03;;
10661;SDS011;5379;51.034;7.006;2023-04-15T12:56:14;2.40;;;2.30;;
10661;SDS011;5379;51.034;7.006;2023-04-15T12:58:42;2.77;;;2.47;;
10661;SDS011;5379;51.034;7.006;2023-04-15T13:01:09;2.13;;;2.03;;
10661;SDS011;5379;51.034;7.006;2023-04-15T13:03:36;1.87;;;1.83;;
10661;SDS011;5379;51.034;7.006;2023-04-15T13:06:03;1.80;;;1.80;;
10661;SDS011;5379;51.034;7.006;2023-04-15T13:08:31;2.90;;;2.67;;
10661;SDS011;5379;51.034;7.006;2023-04-15T13:10:58;3.43;;;3.23;;
10661;SDS011;5379;51.034;7.006;2023-04-15T13:13:25;2.77;;;2.57;;
10661;SDS011;5379;51.034;7.006;2023-04-15T13:15:52;2.10;;;2.00;;
10661;SDS011;5379;51.034;7.006;2023-04-15T13:18:19;2.60;;;2.50;;
10661;SDS011;5379;51.034;7.006;2023-04-15T13:20:47;1.93;;;1.93;;
10661;SDS011;5379;51.034;7.006;2023-04-15T13:23:14;2.17;;;2.07;;
10661;SDS011;5379;51.034;7.006;2023-04-15T13:25:43;2.20;;;2.10;;
10661;SDS011;5379;51.034;7.006;2023-04-15T13:28:10;3.23;;;3.03;;
10661;SDS011;5379;51.034;7.006;2023-04-15T13:30:37;2.17;;;2.07;;
10661;SDS011;5379;51.034;7.006;2023-04-15T13:33:04;4.67;;;2.37;;
10661;SDS011;5379;51.034;7.006;2023-04-15T13:35:31;4.23;;;2.90;;
10661;SDS011;5379;51.034;7.006;2023-04-15T13:37:58;2.60;;;2.50;;
10661;SDS011;5379;51.034;7.006;2023-04-15T13:40:25;2.83;;;2.63;;
10661;SDS011;5379;51.034;7.006;2023-04-15T13:42:54;2.40;;;2.30;;
10661;SDS011;5379;51.034;7.006;2023-04-15T13:45:21;3.07;;;2.87;;
10661;SDS011;5379;51.034;7.006;2023-04-15T13:47:48;2.70;;;2.60;;
10661;SDS011;5379;51.034;7.006;2023-04-15T13:50:15;1.97;;;1.87;;
10661;SDS011;5379;51.034;7.006;2023-04-15T13:52:42;2.07;;;1.97;;
10661;SDS011;5379;51.034;7.006;2023-04-15T13:55:09;1.47;;;1.47;;
10661;SDS011;5379;51.034;7.006;2023-04-15T13:57:36;2.10;;;2.00;;
10661;SDS011;5379;51.034;7.006;2023-04-15T14:00:06;2.43;;;2.33;;
10661;SDS011;5379;51.034;7.006;2023-04-15T14:02:33;2.53;;;2.43;;
10661;SDS011;5379;51.034;7.006;2023-04-15T14:05:00;3.03;;;2.83;;
10661;SDS011;5379;51.034;7.006;2023-04-15T14:07:27;2.20;;;2.10;;
10661;SDS011;5379;51.034;7.006;2023-04-15T14:09:55;1.93;;;1.87;;
10661;SDS011;5379;51.034;7.006;2023-04-15T14:12:22;2.27;;;2.17;;
10661;SDS011;5379;51.034;7.006;2023-04-15T14:14:49;2.03;;;1.93;;
10661;SDS011;5379;51.034;7.006;2023-04-15T14:17:17;2.00;;;1.90;;
10661;SDS011;5379;51.034;7.006;2023-04-15T14:19:44;2.10;;;2.00;;
10661;SDS011;5379;51.034;7.006;2023-04-15T14:22:11;1.73;;;1.63;;
10661;SDS011;5379;51.034;7.006;2023-04-15T14:24:38;1.80;;;1.70;;
10661;SDS011;5379;51.034;7.006;2023-04-15T14:27:05;1.10;;;1.10;;
10661;SDS011;5379;51.034;7.006;2023-04-15T14:29:32;1.87;;;1.77;;
10661;SDS011;5379;51.034;7.006;2023-04-15T14:31:59;1.23;;;1.23;;
10661;SDS011;5379;51.034;7.006;2023-04-15T14:34:27;1.60;;;1.60;;
10661;SDS011;5379;51.034;7.006;2023-04-15T14:36:55;1.87;;;1.77;;
10661;SDS011;5379;51.034;7.006;2023-04-15T14:39:22;1.53;;;1.53;;
10661;SDS011;5379;51.034;7.006;2023-04-15T14:41:49;1.10;;;1.10;;
10661;SDS011;5379;51.034;7.006;2023-04-15T14:44:16;1.57;;;1.57;;
10661;SDS011;5379;51.034;7.006;2023-04-15T14:46:43;1.57;;;1.47;;
10661;SDS011;5379;51.034;7.006;2023-04-15T14:49:10;1.70;;;1.60;;
10661;SDS011;5379;51.034;7.006;2023-04-15T14:51:38;2.10;;;2.00;;
10661;SDS011;5379;51.034;7.006;2023-04-15T14:54:05;1.97;;;1.87;;
10661;SDS011;5379;51.034;7.006;2023-04-15T14:56:32;1.20;;;1.20;;
10661;SDS011;5379;51.034;7.006;2023-04-15T14:58:59;1.40;;;1.30;;
10661;SDS011;5379;51.034;7.006;2023-04-15T15:01:26;1.50;;;1.50;;
10661;SDS011;5379;51.034;7.006;2023-04-15T15:03:54;2.43;;;1.53;;
10661;SDS011;5379;51.034;7.006;2023-04-15T15:06:22;1.80;;;1.70;;
10661;SDS011;5379;51.034;7.006;2023-04-15T15:08:50;1.93;;;1.83;;
10661;SDS011;5379;51.034;7.006;2023-04-15T15:11:17;2.10;;;2.00;;
10661;SDS011;5379;51.034;7.006;2023-04-15T15:13:45;1.20;;;1.20;;
10661;SDS011;5379;51.034;7.006;2023-04-15T15:16:11;1.30;;;1.30;;
10661;SDS011;5379;51.034;7.006;2023-04-15T15:18:38;1.87;;;1.77;;
10661;SDS011;5379;51.034;7.006;2023-04-15T15:21:05;1.43;;;1.40;;
10661;SDS011;5379;51.034;7.006;2023-04-15T15:23:32;1.30;;;1.30;;
10661;SDS011;5379;51.034;7.006;2023-04-15T15:26:01;1.03;;;1.03;;
10661;SDS011;5379;51.034;7.006;2023-04-15T15:28:28;1.33;;;1.33;;
10661;SDS011;5379;51.034;7.006;2023-04-15T15:30:55;4.47;;;1.97;;
10661;SDS011;5379;51.034;7.006;2023-04-15T15:33:21;1.27;;;1.27;;
10661;SDS011;5379;51.034;7.006;2023-04-15T15:35:49;1.10;;;1.10;;
10661;SDS011;5379;51.034;7.006;2023-04-15T15:38:16;1.10;;;1.10;;
10661;SDS011;5379;51.034;7.006;2023-04-15T15:40:43;1.30;;;1.30;;
10661;SDS011;5379;51.034;7.006;2023-04-15T15:43:11;2.67;;;1.50;;
10661;SDS011;5379;51.034;7.006;2023-04-15T15:45:38;1.60;;;1.50;;
10661;SDS011;5379;51.034;7.006;2023-04-15T15:48:05;1.03;;;1.03;;
10661;SDS011;5379;51.034;7.006;2023-04-15T15:50:32;1.30;;;1.30;;
10661;SDS011;5379;51.034;7.006;2023-04-15T15:53:00;1.50;;;1.40;;
10661;SDS011;5379;51.034;7.006;2023-04-15T15:55:26;1.07;;;1.07;;
10661;SDS011;5379;51.034;7.006;2023-04-15T15:57:53;1.40;;;1.40;;
10661;SDS011;5379;51.034;7.006;2023-04-15T16:00:22;2.20;;;2.00;;
10661;SDS011;5379;51.034;7.006;2023-04-15T16:02:49;1.80;;;1.53;;
10661;SDS011;5379;51.034;7.006;2023-04-15T16:05:16;2.23;;;2.07;;
10661;SDS011;5379;51.034;7.006;2023-04-15T16:07:43;1.60;;;1.50;;
10661;SDS011;5379;51.034;7.006;2023-04-15T16:10:10;1.50;;;1.40;;
10661;SDS011;5379;51.034;7.006;2023-04-15T16:12:38;1.43;;;1.43;;
10661;SDS011;5379;51.034;7.006;2023-04-15T16:15:05;1.30;;;1.30;;
10661;SDS011;5379;51.034;7.006;2023-04-15T16:17:34;2.10;;;1.90;;
10661;SDS011;5379;51.034;7.006;2023-04-15T16:20:01;1.53;;;1.43;;
10661;SDS011;5379;51.034;7.006;2023-04-15T16:22:29;1.20;;;1.20;;
10661;SDS011;5379;51.034;7.006;2023-04-15T16:24:57;2.83;;;2.07;;
10661;SDS011;5379;51.034;7.006;2023-04-15T16:27:24;1.60;;;1.50;;
10661;SDS011;5379;51.034;7.006;2023-04-15T16:29:51;1.77;;;1.67;;
10661;SDS011;5379;51.034;7.006;2023-04-15T16:32:18;1.40;;;1.30;;
10661;SDS011;5379;51.034;7.006;2023-04-15T16:34:47;1.70;;;1.60;;
10661;SDS011;5379;51.034;7.006;2023-04-15T16:37:14;2.03;;;1.93;;
10661;SDS011;5379;51.034;7.006;2023-04-15T16:39:41;1.10;;;1.10;;
10661;SDS011;5379;51.034;7.006;2023-04-15T16:42:08;2.37;;;1.53;;
10661;SDS011;5379;51.034;7.006;2023-04-15T16:44:35;1.67;;;1.57;;
10661;SDS011;5379;51.034;7.006;2023-04-15T16:47:02;2.23;;;2.03;;
10661;SDS011;5379;51.034;7.006;2023-04-15T16:49:29;2.43;;;2.23;;
10661;SDS011;5379;51.034;7.006;2023-04-15T16:51:58;1.77;;;1.67;;
10661;SDS011;5379;51.034;7.006;2023-04-15T16:54:25;1.87;;;1.80;;
10661;SDS011;5379;51.034;7.006;2023-04-15T16:56:53;1.57;;;1.47;;
10661;SDS011;5379;51.034;7.006;2023-04-15T16:59:20;1.73;;;1.73;;
10661;SDS011;5379;51.034;7.006;2023-04-15T17:01:47;2.37;;;2.27;;
10661;SDS011;5379;51.034;7.006;2023-04-15T17:04:14;2.43;;;2.23;;
10661;SDS011;5379;51.034;7.006;2023-04-15T17:06:41;1.97;;;1.93;;
10661;SDS011;5379;51.034;7.006;2023-04-15T17:09:09;2.57;;;2.37;;
10661;SDS011;5379;51.034;7.006;2023-04-15T17:11:36;2.00;;;1.93;;
10661;SDS011;5379;51.034;7.006;2023-04-15T17:14:04;2.30;;;2.10;;
10661;SDS011;5379;51.034;7.006;2023-04-15T17:16:32;2.10;;;2.00;;
10661;SDS011;5379;51.034;7.006;2023-04-15T17:19:00;2.40;;;2.30;;
10661;SDS011;5379;51.034;7.006;2023-04-15T17:21:27;2.47;;;2.37;;
10661;SDS011;5379;51.034;7.006;2023-04-15T17:23:54;2.53;;;2.43;;
10661;SDS011;5379;51.034;7.006;2023-04-15T17:26:22;2.63;;;2.43;;
10661;SDS011;5379;51.034;7.006;2023-04-15T17:28:49;1.80;;;1.80;;
10661;SDS011;5379;51.034;7.006;2023-04-15T17:31:16;2.23;;;2.13;;
10661;SDS011;5379;51.034;7.006;2023-04-15T17:33:43;1.97;;;1.93;;
10661;SDS011;5379;51.034;7.006;2023-04-15T17:36:10;2.87;;;2.10;;
10661;SDS011;5379;51.034;7.006;2023-04-15T17:38:37;2.87;;;2.67;;
10661;SDS011;5379;51.034;7.006;2023-04-15T17:41:04;2.70;;;2.60;;
10661;SDS011;5379;51.034;7.006;2023-04-15T17:43:33;2.17;;;2.07;;
10661;SDS011;5379;51.034;7.006;2023-04-15T17:46:00;3.27;;;3.07;;
10661;SDS011;5379;51.034;7.006;2023-04-15T17:48:27;2.47;;;2.37;;
10661;SDS011;5379;51.034;7.006;2023-04-15T17:50:54;4.03;;;2.70;;
10661;SDS011;5379;51.034;7.006;2023-04-15T17:53:21;2.50;;;2.37;;
10661;SDS011;5379;51.034;7.006;2023-04-15T17:55:48;2.23;;;2.13;;
10661;SDS011;5379;51.034;7.006;2023-04-15T17:58:17;2.60;;;2.50;;
10661;SDS011;5379;51.034;7.006;2023-04-15T18:00:45;3.07;;;2.80;;
10661;SDS011;5379;51.034;7.006;2023-04-15T18:03:12;2.53;;;2.43;;
10661;SDS011;5379;51.034;7.006;2023-04-15T18:05:39;3.00;;;2.37;;
10661;SDS011;5379;51.034;7.006;2023-04-15T18:08:06;2.17;;;2.00;;
10661;SDS011;5379;51.034;7.006;2023-04-15T18:10:33;2.03;;;1.93;;
10661;SDS011;5379;51.034;7.006;2023-04-15T18:13:01;2.17;;;2.07;;
10661;SDS011;5379;51.034;7.006;2023-04-15T18:15:28;3.30;;;2.70;;
10661;SDS011;5379;51.034;7.006;2023-04-15T18:17:56;2.47;;;2.27;;
10661;SDS011;5379;51.034;7.006;2023-04-15T18:20:23;2.03;;;1.93;;
10661;SDS011;5379;51.034;7.006;2023-04-15T18:22:50;2.20;;;2.10;;
10661;SDS011;5379;51.034;7.006;2023-04-15T18:25:17;5.27;;;4.87;;
10661;SDS011;5379;51.034;7.006;2023-04-15T18:27:44;2.77;;;2.67;;
10661;SDS011;5379;51.034;7.006;2023-04-15T18:30:12;4.90;;;2.90;;
10661;SDS011;5379;51.034;7.006;2023-04-15T18:32:39;2.60;;;2.50;;
10661;SDS011;5379;51.034;7.006;2023-04-15T18:35:08;2.97;;;2.87;;
10661;SDS011;5379;51.034;7.006;2023-04-15T18:37:35;3.60;;;3.40;;
10661;SDS011;5379;51.034;7.006;2023-04-15T18:40:02;4.77;;;4.30;;
10661;SDS011;5379;51.034;7.006;2023-04-15T18:42:29;3.77;;;3.47;;
10661;SDS011;5379;51.034;7.006;2023-04-15T18:44:56;4.60;;;3.50;;
10661;SDS011;5379;51.034;7.006;2023-04-15T18:47:24;3.93;;;3.53;;
10661;SDS011;5379;51.034;7.006;2023-04-15T18:49:51;3.40;;;3.20;;
10661;SDS011;5379;51.034;7.006;2023-04-15T18:52:20;2.97;;;2.77;;
10661;SDS011;5379;51.034;7.006;2023-04-15T18:54:47;2.83;;;2.73;;
10661;SDS011;5379;51.034;7.006;2023-04-15T18:57:14;2.87;;;2.77;;
10661;SDS011;5379;51.034;7.006;2023-04-15T18:59:41;2.67;;;2.50;;
10661;SDS011;5379;51.034;7.006;2023-04-15T19:02:08;3.43;;;3.20;;
10661;SDS011;5379;51.034;7.006;2023-04-15T19:04:35;3.03;;;2.83;;
10661;SDS011;5379;51.034;7.006;2023-04-15T19:07:02;3.43;;;3.13;;
10661;SDS011;5379;51.034;7.006;2023-04-15T19:09:30;12.07;;;2.97;;
10661;SDS011;5379;51.034;7.006;2023-04-15T19:11:58;3.40;;;3.10;;
10661;SDS011;5379;51.034;7.006;2023-04-15T19:14:25;3.00;;;2.77;;
10661;SDS011;5379;51.034;7.006;2023-04-15T19:16:52;3.00;;;2.80;;
10661;SDS011;5379;51.034;7.006;2023-04-15T19:19:20;2.83;;;2.63;;
10661;SDS011;5379;51.034;7.006;2023-04-15T19:21:47;3.10;;;2.90;;
10661;SDS011;5379;51.034;7.006;2023-04-15T19:24:14;2.87;;;2.77;;
10661;SDS011;5379;51.034;7.006;2023-04-15T19:26:43;3.00;;;2.80;;
10661;SDS011;5379;51.034;7.006;2023-04-15T19:29:12;3.27;;;3.07;;
10661;SDS011;5379;51.034;7.006;2023-04-15T19:31:39;3.63;;;3.33;;
10661;SDS011;5379;51.034;7.006;2023-04-15T19:34:06;3.20;;;3.03;;
10661;SDS011;5379;51.034;7.006;2023-04-15T19:36:33;3.23;;;3.13;;
10661;SDS011;5379;51.034;7.006;2023-04-15T19:38:59;5.03;;;4.63;;
10661;SDS011;5379;51.034;7.006;2023-04-15T19:41:26;4.57;;;4.30;;
10661;SDS011;5379;51.034;7.006;2023-04-15T19:43:55;4.13;;;3.93;;
10661;SDS011;5379;51.034;7.006;2023-04-15T19:46:22;3.90;;;3.70;;